Overview Statistics Trail Chart Weather Telemetry Raw packets
 

This is the latest recevied telemetry packets stored in our database for station/object DF4ND-24. If no packets are shown the sender has not sent any telemetry packets the latest 10 day(s).

Telemetry packets is used to share measurements like repeteater parameters, battery voltage, radiation readings (or any other measurements).

<< 1 2 3 4 >>
Time Press* Temp.in* Hum* QNH* Temp.out*
1788612271 978.8 hPa 25.1 C deg 49.5 % 1027.6 hPa 25.2 C deg
1788610445 978.8 hPa 24.9 C deg 49.8 % 1027.7 hPa 25.1 C deg
1788608612 978.7 hPa 24.8 C deg 50.6 % 1027.6 hPa 24.8 C deg
1788606790 978.7 hPa 24.6 C deg 52 % 1027.7 hPa 24.8 C deg
1788604955 978.7 hPa 24.5 C deg 52 % 1027.7 hPa 24.6 C deg
1788603126 978.8 hPa 24.2 C deg 53.3 % 1027.9 hPa 24.1 C deg
1788601293 978.7 hPa 24.1 C deg 54.5 % 1027.8 hPa 23.9 C deg
1788601293 978.7 hPa 24.1 C deg 54.5 % 1027.8 hPa 23.9 C deg
1788599465 978.8 hPa 23.9 C deg 55.5 % 1028.1 hPa 23.6 C deg
1788599465 978.8 hPa 23.9 C deg 55.5 % 1028.1 hPa 23.6 C deg
1788597631 978.6 hPa 23.8 C deg 55.1 % 1027.8 hPa 23.6 C deg
1788595803 978.4 hPa 23.8 C deg 54.1 % 1027.6 hPa 23.5 C deg
1788595803 978.4 hPa 23.8 C deg 54.1 % 1027.6 hPa 23.5 C deg
1788593972 978.3 hPa 24.1 C deg 47 % 1027.4 hPa 23.5 C deg
1788592148 978.1 hPa 24.3 C deg 46.8 % 1027.2 hPa 23.8 C deg
1788592148 978.1 hPa 24.3 C deg 46.8 % 1027.2 hPa 23.8 C deg
1788590353 977.8 hPa 24.3 C deg 46.9 % 1026.7 hPa 23.8 C deg
1788586652 977.4 hPa 24.5 C deg 47.2 % 1026.3 hPa 23.8 C deg
1788586652 977.4 hPa 24.5 C deg 47.2 % 1026.3 hPa 23.8 C deg
1788584819 977 hPa 24.7 C deg 47.1 % 1025.8 hPa 23.9 C deg
1788584819 977 hPa 24.7 C deg 47.1 % 1025.8 hPa 23.9 C deg
1788581175 976.3 hPa 25.1 C deg 46.9 % 1025.1 hPa 24.5 C deg
1788581159 976.3 hPa 25.1 C deg 46.9 % 1025.1 hPa 24.5 C deg
1788579331 976.2 hPa 25.3 C deg 47.1 % 1024.9 hPa 24.9 C deg
1788579331 976.2 hPa 25.3 C deg 47.1 % 1024.9 hPa 24.9 C deg
*Used Equation Coefficients:
Press: 0, 1, 0
Temp.in: 0, 1, 0
Hum: 0, 1, 0
QNH: 0, 1, 0
Temp.out: 0, 1, 0

  • The parameter names for the analog channels will be Value1, Value2, Value3 (up to Value5) if station has not sent a PARAM-packet that specifies the parameter names for each analog channel.
  • Each analog value is a decimal number between 000 and 255 (according to APRS specifications). The receiver use the telemetry equation coefficientsto to restore the original sensor values. If no EQNS-packet with equation coefficients is sent we will show the values as is (this corresponds to the equation coefficients a=0, b=1 and c=0).
    The sent equation coefficients is used in the equation: a * value2 + b * value + c.
  • The units for the analog values will not be shown if station has not sent a UNIT-packet specifying what unit's to use.
  • The parameter names for the digital bits will be Bit1, Bit2, Bit3 (up to Bit8) if station has not sent a PARAM-packet that specifies the parameter names for each digital bit.
  • All bit labels will be named "On" if station has not sent a UNIT-packet that specifies the label of each bit.
  • A bit is considered to be On when the bit is 1 if station has not sent a BITS-packet that specifies another "Bit sense" (a BITS-packet specify the state of the bits that match the BIT labels)